createdAt,value
2023-04-27T00:00:37.178Z,22.75
2023-04-27T00:03:06.283Z,24.95
2023-04-27T00:05:36.151Z,21.63
2023-04-27T00:08:03.956Z,23.70
2023-04-27T00:10:31.750Z,19.00
2023-04-27T00:12:59.421Z,18.95
2023-04-27T00:15:27.090Z,20.98
2023-04-27T00:17:55.064Z,21.67
2023-04-27T00:20:22.745Z,19.42
2023-04-27T00:22:50.372Z,21.58
2023-04-27T00:25:17.876Z,23.80
2023-04-27T00:27:46.276Z,21.25
2023-04-27T00:30:14.188Z,22.77
2023-04-27T00:32:42.611Z,17.95
2023-04-27T00:35:10.837Z,21.40
2023-04-27T00:37:38.735Z,21.70
2023-04-27T00:40:07.951Z,22.88
2023-04-27T00:42:36.350Z,18.55
2023-04-27T00:45:05.905Z,20.65
2023-04-27T00:47:33.801Z,26.75
2023-04-27T00:50:04.122Z,19.75
2023-04-27T00:52:31.844Z,24.30
2023-04-27T00:55:02.855Z,18.55
2023-04-27T01:00:01.086Z,19.77
2023-04-27T01:02:30.480Z,17.77
2023-04-27T01:04:58.298Z,19.83
2023-04-27T01:07:26.931Z,21.27
2023-04-27T01:09:54.481Z,16.35
2023-04-27T01:12:22.142Z,20.85
2023-04-27T01:14:50.110Z,22.08
2023-04-27T01:17:18.368Z,23.35
2023-04-27T01:19:45.998Z,19.63
2023-04-27T01:22:15.278Z,22.02
2023-04-27T01:24:43.248Z,22.65
2023-04-27T01:27:10.943Z,18.15
2023-04-27T01:29:38.880Z,19.92
2023-04-27T01:32:06.964Z,21.67
2023-04-27T01:34:35.052Z,21.60
2023-04-27T01:37:02.584Z,22.02
2023-04-27T01:39:30.201Z,18.45
2023-04-27T01:41:58.627Z,19.15
2023-04-27T01:44:26.463Z,21.98
2023-04-27T01:46:55.277Z,22.65
2023-04-27T01:49:22.987Z,19.83
2023-04-27T01:51:51.455Z,28.15
2023-04-27T01:54:18.948Z,18.13
2023-04-27T01:56:46.574Z,24.75
2023-04-27T01:59:14.591Z,36.85
2023-04-27T02:01:42.625Z,23.10
2023-04-27T02:04:11.156Z,25.77
2023-04-27T02:06:39.046Z,24.45
2023-04-27T02:09:07.635Z,28.25
2023-04-27T02:11:35.379Z,26.33
2023-04-27T02:14:03.620Z,27.20
2023-04-27T02:16:35.136Z,23.23
2023-04-27T02:19:03.063Z,27.02
2023-04-27T02:21:30.729Z,29.80
2023-04-27T02:23:58.212Z,27.92
2023-04-27T02:26:29.479Z,27.52
2023-04-27T02:28:58.149Z,29.80
2023-04-27T02:31:26.282Z,27.15
2023-04-27T02:33:53.782Z,30.73
2023-04-27T02:36:21.394Z,24.75
2023-04-27T02:38:48.910Z,28.50
2023-04-27T02:41:16.310Z,26.48
2023-04-27T02:43:43.764Z,26.85
2023-04-27T02:46:11.211Z,26.75
2023-04-27T02:48:38.586Z,24.08
2023-04-27T02:51:06.998Z,32.28
2023-04-27T02:53:34.633Z,24.55
2023-04-27T02:56:02.079Z,24.00
2023-04-27T02:58:29.645Z,31.58
2023-04-27T03:00:57.855Z,32.58
2023-04-27T03:03:25.793Z,27.42
2023-04-27T03:05:53.476Z,35.20
2023-04-27T03:08:20.988Z,32.60
2023-04-27T03:10:48.796Z,27.15
2023-04-27T03:13:16.988Z,36.88
2023-04-27T03:15:44.686Z,28.63
2023-04-27T03:18:13.052Z,30.38
2023-04-27T03:20:41.787Z,31.83
2023-04-27T03:23:09.434Z,31.15
2023-04-27T03:25:37.353Z,27.88
2023-04-27T03:28:05.125Z,28.10
2023-04-27T03:30:32.733Z,32.38
2023-04-27T03:33:00.936Z,32.88
2023-04-27T03:35:30.428Z,33.58
2023-04-27T03:37:57.939Z,34.13
2023-04-27T03:40:25.839Z,30.75
2023-04-27T03:42:53.446Z,27.63
2023-04-27T03:45:22.401Z,36.15
2023-04-27T03:47:51.316Z,32.28
2023-04-27T03:50:19.996Z,31.95
2023-04-27T03:52:47.733Z,29.17
2023-04-27T03:55:16.634Z,30.85
2023-04-27T03:57:45.763Z,34.20
2023-04-27T04:00:14.650Z,29.38
2023-04-27T04:02:42.856Z,37.30
2023-04-27T04:05:12.136Z,35.22
2023-04-27T04:07:41.545Z,32.10
2023-04-27T04:10:09.750Z,32.28
2023-04-27T04:12:38.470Z,31.08
2023-04-27T04:15:07.777Z,34.28
2023-04-27T04:17:35.938Z,32.95
2023-04-27T04:20:08.410Z,35.60
2023-04-27T04:22:39.314Z,38.88
2023-04-27T04:25:08.726Z,33.22
2023-04-27T04:27:36.483Z,28.92
2023-04-27T04:30:06.498Z,34.30
2023-04-27T04:32:38.153Z,35.03
2023-04-27T04:35:07.740Z,36.97
2023-04-27T04:37:35.649Z,38.35
2023-04-27T04:40:09.038Z,33.47
2023-04-27T04:42:37.868Z,31.20
2023-04-27T04:47:36.804Z,37.03
2023-04-27T04:50:05.032Z,40.30
2023-04-27T04:52:33.483Z,33.85
2023-04-27T04:55:01.816Z,39.72
2023-04-27T04:57:30.555Z,38.17
2023-04-27T04:59:58.309Z,39.03
2023-04-27T05:02:26.123Z,40.03
2023-04-27T05:04:54.400Z,39.53
2023-04-27T05:07:24.862Z,41.75
2023-04-27T05:09:52.833Z,37.30
2023-04-27T05:12:20.559Z,36.25
2023-04-27T05:14:48.419Z,33.50
2023-04-27T05:17:15.806Z,43.38
2023-04-27T05:19:43.292Z,38.15
2023-04-27T05:22:11.028Z,46.47
2023-04-27T05:24:38.659Z,45.95
2023-04-27T05:27:06.200Z,42.55
2023-04-27T05:29:33.841Z,48.25
2023-04-27T05:32:01.807Z,46.47
2023-04-27T05:34:29.262Z,44.13
2023-04-27T05:36:56.673Z,46.63
2023-04-27T05:39:24.087Z,47.47
2023-04-27T05:41:51.547Z,46.45
2023-04-27T05:44:19.010Z,43.38
2023-04-27T05:46:46.504Z,44.47
2023-04-27T05:49:14.040Z,60.72
2023-04-27T05:51:41.735Z,62.95
2023-04-27T05:54:09.879Z,63.40
2023-04-27T05:56:37.836Z,62.67
2023-04-27T05:59:05.498Z,53.60
2023-04-27T06:01:32.957Z,64.47
2023-04-27T06:04:01.738Z,60.70
2023-04-27T06:06:32.916Z,62.85
2023-04-27T06:11:28.791Z,61.90
2023-04-27T06:13:56.523Z,55.58
2023-04-27T06:16:24.503Z,65.20
2023-04-27T06:18:52.031Z,51.20
2023-04-27T06:21:19.461Z,55.67
2023-04-27T06:23:47.195Z,56.70
2023-04-27T06:26:14.701Z,51.17
2023-04-27T06:28:42.346Z,53.22
2023-04-27T06:31:09.790Z,54.72
2023-04-27T06:33:37.302Z,53.70
2023-04-27T06:36:05.101Z,51.20
2023-04-27T06:38:32.616Z,53.83
2023-04-27T06:41:00.083Z,47.13
2023-04-27T06:43:27.508Z,48.67
2023-04-27T06:45:55.912Z,50.22
2023-04-27T06:48:23.592Z,45.55
2023-04-27T06:50:52.066Z,43.75
2023-04-27T06:53:19.523Z,44.03
2023-04-27T06:55:48.645Z,47.03
2023-04-27T06:58:16.438Z,48.17
2023-04-27T07:00:44.202Z,43.15
2023-04-27T07:03:11.780Z,45.33
2023-04-27T07:05:39.299Z,53.33
2023-04-27T07:08:08.840Z,47.38
2023-04-27T07:10:36.857Z,40.33
2023-04-27T07:13:05.532Z,36.92
2023-04-27T07:15:34.950Z,36.20
2023-04-27T07:18:02.548Z,40.13
2023-04-27T07:20:30.294Z,38.00
2023-04-27T07:22:59.327Z,40.22
2023-04-27T07:25:27.749Z,44.88
2023-04-27T07:27:56.965Z,42.38
2023-04-27T07:30:24.541Z,33.75
2023-04-27T07:32:54.656Z,33.55
2023-04-27T07:35:22.564Z,37.17
2023-04-27T07:37:52.093Z,34.08
2023-04-27T07:40:19.626Z,34.67
2023-04-27T07:42:48.200Z,43.45
2023-04-27T07:45:17.500Z,35.88
2023-04-27T07:47:45.223Z,33.75
2023-04-27T07:50:14.255Z,38.78
2023-04-27T07:52:42.051Z,33.78
2023-04-27T07:55:09.985Z,29.92
2023-04-27T07:57:37.546Z,36.42
2023-04-27T08:00:08.762Z,30.25
2023-04-27T08:02:40.470Z,39.20
2023-04-27T08:05:08.688Z,31.95
2023-04-27T08:07:41.180Z,37.63
2023-04-27T08:10:12.990Z,32.17
2023-04-27T08:12:40.741Z,27.15
2023-04-27T08:15:08.977Z,32.20
2023-04-27T08:17:37.207Z,28.73
2023-04-27T08:20:06.923Z,26.27
2023-04-27T08:22:34.714Z,35.78
2023-04-27T08:25:04.112Z,26.50
2023-04-27T08:27:31.588Z,29.48
2023-04-27T08:30:00.936Z,27.88
2023-04-27T08:32:28.672Z,27.67
2023-04-27T08:34:56.275Z,28.35
2023-04-27T08:37:23.883Z,27.20
2023-04-27T08:39:51.261Z,27.67
2023-04-27T08:42:18.721Z,24.30
2023-04-27T08:44:46.421Z,23.13
2023-04-27T08:47:13.901Z,26.30
2023-04-27T08:49:41.725Z,21.23
2023-04-27T08:52:16.812Z,24.88
2023-04-27T08:54:44.382Z,24.25
2023-04-27T08:57:16.301Z,30.40
2023-04-27T08:59:46.476Z,22.70
2023-04-27T09:02:21.740Z,26.27
2023-04-27T09:04:50.998Z,25.38
2023-04-27T09:07:19.416Z,24.58
2023-04-27T09:09:48.449Z,20.30
2023-04-27T09:12:21.617Z,21.50
2023-04-27T09:14:59.551Z,25.77
2023-04-27T09:17:30.837Z,22.92
2023-04-27T09:20:10.281Z,24.25
2023-04-27T09:22:49.719Z,24.50
2023-04-27T09:25:27.788Z,19.67
2023-04-27T09:27:59.766Z,26.08
2023-04-27T09:30:28.766Z,22.27
2023-04-27T09:33:04.347Z,25.10
2023-04-27T09:35:33.551Z,22.33
2023-04-27T09:38:01.549Z,29.27
2023-04-27T09:40:31.245Z,23.55
2023-04-27T09:43:01.700Z,20.88
2023-04-27T09:45:30.217Z,27.17
2023-04-27T09:47:58.900Z,21.90
2023-04-27T09:50:26.756Z,18.15
2023-04-27T09:52:54.402Z,17.45
2023-04-27T09:55:28.964Z,19.00
2023-04-27T09:58:20.668Z,25.15
2023-04-27T10:01:11.136Z,21.90
2023-04-27T10:04:05.327Z,24.55
2023-04-27T10:06:59.152Z,20.65
2023-04-27T10:09:56.807Z,23.33
2023-04-27T10:12:36.792Z,19.17
2023-04-27T10:15:15.949Z,20.05
2023-04-27T10:17:53.113Z,18.77
2023-04-27T10:20:37.711Z,21.95
2023-04-27T10:23:07.805Z,22.95
2023-04-27T10:25:40.925Z,17.47
2023-04-27T10:28:09.063Z,23.42
2023-04-27T10:30:40.551Z,20.30
2023-04-27T10:33:10.063Z,22.52
2023-04-27T10:35:40.437Z,15.60
2023-04-27T10:38:09.953Z,20.88
2023-04-27T10:40:38.663Z,17.98
2023-04-27T10:43:16.291Z,20.35
2023-04-27T10:45:44.834Z,19.20
2023-04-27T10:48:18.151Z,19.65
2023-04-27T10:50:46.784Z,17.00
2023-04-27T10:53:15.583Z,17.98
2023-04-27T10:55:43.010Z,16.50
2023-04-27T10:58:14.225Z,22.13
2023-04-27T11:00:44.296Z,14.73
2023-04-27T11:03:20.993Z,23.98
2023-04-27T11:05:49.766Z,17.98
2023-04-27T11:08:18.989Z,17.85
2023-04-27T11:10:50.033Z,15.73
2023-04-27T11:13:22.800Z,15.93
2023-04-27T11:15:57.829Z,17.95
2023-04-27T11:18:27.708Z,18.20
2023-04-27T11:21:07.466Z,15.55
2023-04-27T11:23:38.078Z,15.52
2023-04-27T11:26:26.667Z,15.15
2023-04-27T11:29:01.104Z,13.70
2023-04-27T11:31:38.182Z,13.02
2023-04-27T11:34:07.816Z,16.13
2023-04-27T11:36:36.133Z,14.02
2023-04-27T11:39:06.405Z,13.20
2023-04-27T11:41:35.809Z,13.57
2023-04-27T11:44:08.624Z,14.90
2023-04-27T11:46:38.013Z,14.23
2023-04-27T11:49:06.877Z,13.70
2023-04-27T11:51:34.584Z,13.57
2023-04-27T11:54:07.282Z,16.02
2023-04-27T11:56:42.662Z,13.40
2023-04-27T11:59:21.024Z,17.40
2023-04-27T12:01:49.224Z,13.20
2023-04-27T12:04:17.215Z,20.27
2023-04-27T12:06:45.908Z,15.80
2023-04-27T12:09:13.297Z,15.73
2023-04-27T12:11:41.146Z,13.27
2023-04-27T12:14:08.697Z,12.23
2023-04-27T12:16:36.229Z,14.98
2023-04-27T12:19:04.560Z,10.98
2023-04-27T12:21:32.426Z,13.57
2023-04-27T12:24:00.081Z,20.60
2023-04-27T12:26:33.163Z,13.15
2023-04-27T12:29:01.246Z,15.55
2023-04-27T12:31:29.066Z,16.33
2023-04-27T12:33:56.740Z,14.25
2023-04-27T12:36:24.538Z,13.93
2023-04-27T12:38:52.250Z,15.73
2023-04-27T12:41:20.371Z,13.27
2023-04-27T12:43:48.657Z,21.23
2023-04-27T12:46:16.527Z,15.27
2023-04-27T12:48:44.863Z,19.75
2023-04-27T12:51:13.502Z,22.90
2023-04-27T12:53:41.294Z,19.63
2023-04-27T12:56:08.978Z,20.20
2023-04-27T12:58:36.555Z,14.40
2023-04-27T13:01:04.109Z,18.08
2023-04-27T13:03:31.887Z,15.27
2023-04-27T13:05:59.581Z,18.60
2023-04-27T13:08:27.156Z,16.42
2023-04-27T13:10:54.689Z,15.35
2023-04-27T13:13:22.167Z,15.15
2023-04-27T13:15:49.875Z,11.55
2023-04-27T13:18:17.550Z,12.85
2023-04-27T13:20:45.327Z,15.02
2023-04-27T13:23:12.969Z,12.07
2023-04-27T13:25:41.048Z,14.98
2023-04-27T13:28:08.875Z,13.13
2023-04-27T13:30:36.566Z,15.15
2023-04-27T13:33:14.642Z,16.60
2023-04-27T13:35:46.384Z,13.70
2023-04-27T13:38:13.728Z,15.35
2023-04-27T13:40:41.186Z,17.40
2023-04-27T13:43:08.793Z,18.60
2023-04-27T13:45:36.391Z,17.45
2023-04-27T13:48:04.190Z,17.58
2023-04-27T13:50:31.825Z,19.75
2023-04-27T13:52:59.263Z,19.08
2023-04-27T13:55:26.753Z,16.55
2023-04-27T13:57:54.356Z,17.05
2023-04-27T14:00:22.517Z,15.35
2023-04-27T14:02:50.280Z,13.73
2023-04-27T14:05:17.943Z,18.02
2023-04-27T14:07:45.449Z,19.25
2023-04-27T14:10:14.765Z,20.27
2023-04-27T14:12:42.404Z,14.90
2023-04-27T14:17:54.957Z,20.45
2023-04-27T14:20:22.747Z,22.63
2023-04-27T14:22:50.378Z,17.45
2023-04-27T14:25:17.839Z,23.15
2023-04-27T14:27:45.299Z,19.55
2023-04-27T14:30:13.816Z,17.85
2023-04-27T14:32:41.768Z,17.83
2023-04-27T14:35:09.342Z,16.30
2023-04-27T14:37:36.754Z,18.92
2023-04-27T14:40:06.689Z,22.35
2023-04-27T14:42:34.081Z,21.27
2023-04-27T14:45:01.585Z,22.02
2023-04-27T14:47:29.104Z,21.75
2023-04-27T14:49:56.635Z,17.13
2023-04-27T14:52:24.017Z,16.58
2023-04-27T14:54:51.424Z,20.27
2023-04-27T14:57:18.837Z,18.80
2023-04-27T14:59:47.613Z,22.13
2023-04-27T15:02:15.017Z,21.45
2023-04-27T15:04:42.569Z,20.40
2023-04-27T15:07:11.021Z,16.75
2023-04-27T15:09:38.483Z,23.00
2023-04-27T15:12:07.878Z,18.23
2023-04-27T15:14:35.433Z,15.88
2023-04-27T15:17:03.496Z,22.23
2023-04-27T15:19:30.903Z,26.38
2023-04-27T15:21:58.342Z,18.60
2023-04-27T15:24:25.893Z,16.75
2023-04-27T15:26:53.333Z,22.75
2023-04-27T15:29:20.859Z,23.58
2023-04-27T15:31:48.508Z,26.05
2023-04-27T15:34:16.040Z,22.48
2023-04-27T15:36:43.456Z,23.77
2023-04-27T15:39:11.702Z,22.30
2023-04-27T15:41:40.719Z,25.30
2023-04-27T15:44:08.117Z,20.02
2023-04-27T15:46:35.788Z,26.35
2023-04-27T15:49:03.913Z,24.50
2023-04-27T15:51:31.485Z,21.80
2023-04-27T15:53:58.876Z,23.88
2023-04-27T15:56:29.901Z,22.58
2023-04-27T15:58:58.504Z,23.20
2023-04-27T16:01:26.078Z,23.05
2023-04-27T16:03:54.087Z,22.15
2023-04-27T16:06:21.584Z,24.83
2023-04-27T16:08:48.954Z,24.63
2023-04-27T16:11:16.685Z,25.45
2023-04-27T16:13:44.569Z,22.80
2023-04-27T16:16:12.029Z,23.88
2023-04-27T16:18:39.630Z,24.92
2023-04-27T16:21:07.087Z,27.17
2023-04-27T16:23:34.558Z,27.77
2023-04-27T16:26:01.967Z,25.65
2023-04-27T16:28:29.512Z,25.65
2023-04-27T16:30:57.032Z,27.88
2023-04-27T16:33:25.708Z,28.33
2023-04-27T16:35:53.402Z,31.85
2023-04-27T16:38:21.013Z,28.42
2023-04-27T16:40:49.178Z,33.53
2023-04-27T16:43:16.828Z,27.73
2023-04-27T16:45:44.356Z,30.45
2023-04-27T16:48:12.518Z,32.28
2023-04-27T16:50:40.871Z,32.13
2023-04-27T16:53:11.549Z,33.30
2023-04-27T16:55:40.006Z,34.20
2023-04-27T16:58:07.653Z,35.33
2023-04-27T17:00:35.300Z,35.30
2023-04-27T17:03:02.835Z,35.67
2023-04-27T17:05:30.443Z,37.95
2023-04-27T17:07:57.945Z,30.08
2023-04-27T17:10:25.675Z,34.50
2023-04-27T17:12:53.470Z,39.72
2023-04-27T17:15:20.945Z,36.58
2023-04-27T17:17:49.884Z,38.25
2023-04-27T17:20:17.533Z,39.72
2023-04-27T17:22:46.155Z,40.33
2023-04-27T17:25:13.741Z,39.60
2023-04-27T17:27:41.530Z,42.47
2023-04-27T17:30:09.893Z,38.80
2023-04-27T17:32:37.734Z,34.88
2023-04-27T17:35:05.607Z,41.60
2023-04-27T17:37:33.582Z,40.50
2023-04-27T17:40:01.251Z,37.15
2023-04-27T17:42:28.712Z,39.60
2023-04-27T17:44:56.231Z,39.22
2023-04-27T17:47:25.415Z,40.80
2023-04-27T17:49:52.971Z,35.72
2023-04-27T17:52:20.818Z,37.85
2023-04-27T17:54:48.317Z,41.70
2023-04-27T17:57:15.919Z,43.15
2023-04-27T17:59:43.419Z,38.05
2023-04-27T18:02:11.100Z,47.50
2023-04-27T18:04:39.056Z,47.08
2023-04-27T18:07:06.474Z,40.38
2023-04-27T18:09:33.837Z,46.92
2023-04-27T18:12:02.010Z,43.28
2023-04-27T18:14:29.476Z,42.35
2023-04-27T18:16:56.964Z,43.53
2023-04-27T18:19:24.464Z,41.13
2023-04-27T18:21:51.931Z,46.85
2023-04-27T18:24:19.334Z,45.05
2023-04-27T18:26:46.748Z,49.15
2023-04-27T18:29:14.432Z,44.00
2023-04-27T18:31:42.531Z,45.88
2023-04-27T18:34:10.653Z,44.42
2023-04-27T18:36:38.429Z,38.47
2023-04-27T18:39:05.913Z,38.53
2023-04-27T18:41:33.457Z,36.47
2023-04-27T18:44:05.843Z,34.97
2023-04-27T18:46:33.871Z,42.33
2023-04-27T18:49:02.038Z,47.45
2023-04-27T18:51:29.810Z,61.22
2023-04-27T18:53:57.595Z,40.40
2023-04-27T18:56:25.508Z,37.42
2023-04-27T18:58:53.539Z,48.42
2023-04-27T19:01:23.865Z,43.38
2023-04-27T19:03:52.338Z,39.17
2023-04-27T19:06:21.144Z,39.72
2023-04-27T19:08:49.054Z,44.75
2023-04-27T19:11:18.907Z,55.47
2023-04-27T19:13:46.443Z,43.75
2023-04-27T19:16:15.355Z,37.85
2023-04-27T19:18:43.528Z,38.75
2023-04-27T19:21:11.618Z,40.72
2023-04-27T19:23:39.515Z,51.58
2023-04-27T19:26:12.920Z,42.17
2023-04-27T19:28:41.795Z,52.08
2023-04-27T19:31:10.087Z,53.05
2023-04-27T19:33:38.166Z,50.70
2023-04-27T19:36:06.044Z,63.80
2023-04-27T19:38:34.263Z,56.47
2023-04-27T19:41:04.342Z,63.15
2023-04-27T19:43:31.928Z,94.55
2023-04-27T19:46:01.362Z,78.15
2023-04-27T19:48:29.101Z,51.17
2023-04-27T19:50:56.716Z,55.22
2023-04-27T19:53:24.394Z,64.85
2023-04-27T19:55:52.200Z,54.80
2023-04-27T19:58:19.741Z,62.40
2023-04-27T20:00:47.476Z,58.22
2023-04-27T20:03:15.249Z,72.38
2023-04-27T20:05:43.135Z,61.78
2023-04-27T20:08:11.149Z,58.42
2023-04-27T20:10:40.391Z,64.07
2023-04-27T20:13:08.381Z,59.83
2023-04-27T20:15:37.517Z,68.28
2023-04-27T20:18:05.223Z,59.22
2023-04-27T20:20:32.874Z,66.97
2023-04-27T20:23:02.389Z,74.15
2023-04-27T20:25:29.845Z,90.32
2023-04-27T20:27:57.448Z,95.10
2023-04-27T20:30:25.075Z,72.00
2023-04-27T20:32:52.535Z,78.43
2023-04-27T20:35:20.265Z,60.95
2023-04-27T20:37:47.795Z,75.32
2023-04-27T20:40:18.004Z,67.95
2023-04-27T20:42:45.922Z,60.78
2023-04-27T20:45:13.469Z,62.78
2023-04-27T20:47:41.381Z,53.20
2023-04-27T20:50:09.113Z,61.42
2023-04-27T20:52:36.668Z,50.45
2023-04-27T20:55:05.444Z,61.35
2023-04-27T20:57:32.894Z,53.17
2023-04-27T21:00:00.424Z,55.22
2023-04-27T21:02:28.128Z,48.45
2023-04-27T21:04:55.781Z,50.85
2023-04-27T21:07:23.438Z,45.90
2023-04-27T21:09:51.193Z,45.50
2023-04-27T21:12:18.731Z,51.78
2023-04-27T21:14:46.278Z,52.70
2023-04-27T21:17:15.304Z,44.95
2023-04-27T21:19:43.104Z,52.55
2023-04-27T21:22:10.845Z,52.63
2023-04-27T21:24:38.741Z,42.63
2023-04-27T21:27:06.484Z,40.97
2023-04-27T21:29:37.598Z,35.03
2023-04-27T21:32:06.446Z,31.73
2023-04-27T21:34:34.002Z,29.30
2023-04-27T21:37:01.582Z,27.55
2023-04-27T21:39:29.177Z,26.05
2023-04-27T21:41:57.100Z,22.70
2023-04-27T21:44:24.769Z,26.48
2023-04-27T21:46:52.707Z,26.83
2023-04-27T21:49:20.446Z,21.27
2023-04-27T21:51:48.691Z,23.48
2023-04-27T21:54:16.936Z,24.63
2023-04-27T21:56:44.864Z,21.88
2023-04-27T21:59:12.354Z,20.73
2023-04-27T22:01:39.864Z,24.55
2023-04-27T22:04:07.561Z,20.05
2023-04-27T22:06:35.783Z,26.63
2023-04-27T22:09:04.758Z,19.45
2023-04-27T22:11:34.041Z,18.45
2023-04-27T22:14:02.117Z,18.08
2023-04-27T22:16:30.249Z,19.38
2023-04-27T22:18:57.856Z,18.45
2023-04-27T22:21:27.301Z,16.67
2023-04-27T22:23:54.850Z,19.33
2023-04-27T22:26:22.390Z,20.75
2023-04-27T22:28:50.348Z,23.92
2023-04-27T22:31:18.063Z,20.20
2023-04-27T22:33:45.736Z,18.20
2023-04-27T22:36:13.268Z,18.73
2023-04-27T22:38:41.799Z,21.48
2023-04-27T22:41:09.732Z,16.52
2023-04-27T22:43:37.244Z,18.80
2023-04-27T22:46:06.279Z,19.10
2023-04-27T22:48:33.715Z,19.58
2023-04-27T22:51:01.094Z,13.93
2023-04-27T22:53:28.577Z,18.13
2023-04-27T22:55:56.068Z,15.95
2023-04-27T22:58:23.533Z,20.52
2023-04-27T23:00:51.162Z,17.98
2023-04-27T23:03:19.331Z,21.58
2023-04-27T23:05:47.624Z,19.35
2023-04-27T23:08:16.945Z,16.30
2023-04-27T23:10:44.638Z,19.02
2023-04-27T23:13:12.774Z,18.35
2023-04-27T23:15:40.329Z,20.00
2023-04-27T23:18:07.990Z,18.58
2023-04-27T23:20:35.756Z,19.67
2023-04-27T23:23:03.269Z,16.00
2023-04-27T23:25:34.551Z,16.23
2023-04-27T23:28:02.943Z,17.52
2023-04-27T23:30:30.851Z,18.02
2023-04-27T23:32:58.358Z,15.88
2023-04-27T23:35:28.522Z,16.55
2023-04-27T23:37:56.466Z,20.02
2023-04-27T23:40:24.209Z,18.08
2023-04-27T23:42:52.504Z,18.63
2023-04-27T23:45:20.890Z,25.90
2023-04-27T23:47:48.568Z,23.40
2023-04-27T23:50:16.489Z,18.60
2023-04-27T23:52:45.221Z,21.25
2023-04-27T23:55:12.990Z,22.60
2023-04-27T23:57:41.449Z,18.30
